Time;durP1;ratioP1;P1;durP2;ratioP2;P2;SDS_P1;SDS_P2;PMS_P1;PMS_P2;Temp;Humidity;BMP_temperature;BMP_pressure;BME280_temperature;BME280_humidity;BME280_pressure;Samples;Min_cycle;Max_cycle;Signal;HPM_P1;HPM_P2
2022/04/10 00:00:56;;;;;;;1.83;1.50;;;8.10;70.30;;;;;;4996009;28;20026;-73
2022/04/10 00:03:22;;;;;;;3.20;1.80;;;8.10;70.40;;;;;;5013510;28;20041;-74
2022/04/10 00:05:50;;;;;;;2.10;1.60;;;8.10;70.30;;;;;;5027473;28;20049;-73
2022/04/10 00:08:17;;;;;;;1.98;1.52;;;8.00;70.40;;;;;;5012762;28;20036;-73
2022/04/10 00:10:42;;;;;;;2.28;1.67;;;8.00;70.30;;;;;;5029590;28;20490;-74
2022/04/10 00:13:10;;;;;;;2.22;1.65;;;8.00;70.40;;;;;;4996103;28;20064;-73
2022/04/10 00:15:35;;;;;;;2.47;1.70;;;8.00;70.40;;;;;;5029695;28;20026;-73
2022/04/10 00:18:01;;;;;;;1.52;1.30;;;8.00;70.40;;;;;;5012955;28;20022;-73
2022/04/10 00:20:27;;;;;;;2.10;1.35;;;8.00;70.40;;;;;;5011311;28;20036;-73
2022/04/10 00:22:53;;;;;;;1.75;1.35;;;7.90;70.40;;;;;;5012631;28;20389;-74
2022/04/10 00:25:20;;;;;;;2.00;1.40;;;7.90;70.40;;;;;;5061939;28;20045;-73
2022/04/10 00:27:46;;;;;;;2.25;1.58;;;7.90;70.50;;;;;;5011992;28;20060;-73
2022/04/10 00:30:15;;;;;;;2.67;1.80;;;7.90;70.40;;;;;;5028224;28;20033;-73
2022/04/10 00:32:41;;;;;;;2.60;1.60;;;7.80;70.40;;;;;;5020646;28;20465;-73
2022/04/10 00:35:09;;;;;;;2.63;1.95;;;7.80;70.50;;;;;;5028533;28;20033;-73
2022/04/10 00:37:39;;;;;;;1.85;1.50;;;7.80;70.40;;;;;;5030872;28;20064;-73
2022/04/10 00:40:07;;;;;;;2.30;1.40;;;7.80;70.40;;;;;;5027582;28;20034;-73
2022/04/10 00:42:41;;;;;;;2.10;1.58;;;7.80;70.40;;;;;;5030288;28;20026;-73
2022/04/10 00:45:09;;;;;;;2.78;1.83;;;7.80;70.50;;;;;;5037211;28;20473;-73
2022/04/10 00:47:35;;;;;;;2.20;1.58;;;7.70;70.40;;;;;;5011868;28;20088;-74
2022/04/10 00:50:04;;;;;;;2.65;1.65;;;7.70;70.40;;;;;;5029248;28;20470;-75
2022/04/10 00:52:30;;;;;;;1.70;1.48;;;7.70;70.50;;;;;;5032814;28;20021;-73
2022/04/10 00:54:57;;;;;;;2.25;1.50;;;7.70;70.50;;;;;;5030272;28;20120;-73
2022/04/10 00:57:24;;;;;;;2.13;1.75;;;7.70;70.50;;;;;;5016543;28;20017;-74
2022/04/10 00:59:50;;;;;;;3.10;1.88;;;7.60;70.50;;;;;;5034536;28;20095;-73
2022/04/10 01:02:15;;;;;;;3.50;1.70;;;7.60;70.50;;;;;;5035435;28;20032;-73
2022/04/10 01:04:42;;;;;;;3.50;1.80;;;7.60;70.50;;;;;;5042431;28;20114;-74
2022/04/10 01:07:13;;;;;;;1.75;1.60;;;7.60;70.60;;;;;;5023713;28;20037;-73
2022/04/10 01:09:42;;;;;;;1.95;1.50;;;7.60;70.60;;;;;;5038872;28;20033;-74
2022/04/10 01:12:09;;;;;;;2.97;1.70;;;7.60;70.60;;;;;;5024974;28;20083;-73
2022/04/10 01:14:36;;;;;;;2.03;1.50;;;7.50;70.60;;;;;;5022935;28;20478;-73
2022/04/10 01:17:06;;;;;;;2.58;1.83;;;7.50;70.60;;;;;;5027530;28;20546;-74
2022/04/10 01:19:33;;;;;;;2.33;1.40;;;7.50;70.60;;;;;;5022365;28;20029;-74
2022/04/10 01:22:05;;;;;;;2.55;1.60;;;7.50;70.60;;;;;;5034643;28;20043;-73
2022/04/10 01:24:37;;;;;;;1.58;1.38;;;7.50;70.70;;;;;;5039855;28;20029;-74
2022/04/10 01:27:04;;;;;;;1.73;1.60;;;7.40;70.60;;;;;;5023367;28;20347;-74
2022/04/10 01:29:31;;;;;;;2.63;1.60;;;7.50;70.70;;;;;;5031781;28;20060;-73
2022/04/10 01:31:57;;;;;;;2.38;1.50;;;7.40;70.60;;;;;;5041433;28;20064;-73
2022/04/10 01:34:23;;;;;;;1.80;1.52;;;7.40;70.70;;;;;;5032064;28;20025;-74
2022/04/10 01:36:49;;;;;;;2.60;1.60;;;7.40;70.70;;;;;;5040080;28;20044;-73
2022/04/10 01:39:16;;;;;;;1.98;1.70;;;7.40;70.70;;;;;;5038289;28;20383;-73
2022/04/10 01:41:44;;;;;;;1.88;1.65;;;7.40;70.70;;;;;;5049894;28;20755;-74
2022/04/10 01:44:10;;;;;;;1.60;1.50;;;7.40;70.70;;;;;;5042166;28;20048;-73
2022/04/10 01:46:36;;;;;;;2.33;1.60;;;7.40;70.70;;;;;;5023743;28;20576;-72
2022/04/10 01:49:05;;;;;;;2.55;1.60;;;7.30;70.70;;;;;;5017758;28;20094;-72
2022/04/10 01:51:31;;;;;;;3.50;1.67;;;7.30;70.70;;;;;;5015394;28;20042;-72
2022/04/10 01:53:57;;;;;;;2.50;1.50;;;7.30;70.70;;;;;;5008406;28;20156;-72
2022/04/10 01:56:24;;;;;;;2.60;1.65;;;7.30;70.80;;;;;;5037534;28;20037;-71
2022/04/10 01:58:53;;;;;;;2.05;1.67;;;7.30;70.80;;;;;;5025842;28;20017;-72
2022/04/10 02:01:20;;;;;;;1.77;1.40;;;7.30;70.80;;;;;;5034787;28;20029;-72
2022/04/10 02:03:47;;;;;;;2.28;1.63;;;7.30;70.80;;;;;;5038215;28;20040;-73
2022/04/10 02:06:14;;;;;;;2.83;1.90;;;7.20;70.80;;;;;;5030670;28;20053;-74
2022/04/10 02:08:42;;;;;;;2.05;1.50;;;7.20;70.80;;;;;;5030670;28;20649;-72
2022/04/10 02:11:11;;;;;;;3.10;1.70;;;7.20;70.80;;;;;;4997566;28;20030;-72
2022/04/10 02:13:39;;;;;;;1.67;1.58;;;7.20;70.80;;;;;;5014424;28;20014;-72
2022/04/10 02:16:11;;;;;;;2.85;1.60;;;7.20;70.80;;;;;;5060008;28;20037;-72
2022/04/10 02:18:37;;;;;;;1.80;1.55;;;7.20;70.90;;;;;;5030605;28;20021;-73
2022/04/10 02:21:03;;;;;;;2.35;1.88;;;7.10;70.80;;;;;;5035764;28;20028;-72
2022/04/10 02:23:29;;;;;;;2.75;1.60;;;7.10;70.80;;;;;;5030758;28;20053;-71
2022/04/10 02:25:55;;;;;;;3.13;1.92;;;7.10;70.80;;;;;;5012410;28;20073;-73
2022/04/10 02:28:21;;;;;;;2.60;1.90;;;7.10;70.80;;;;;;5020320;28;20033;-72
2022/04/10 02:30:47;;;;;;;2.45;1.63;;;7.10;70.80;;;;;;5029770;28;20029;-72
2022/04/10 02:33:13;;;;;;;3.08;2.08;;;7.00;70.80;;;;;;4997877;28;20040;-72
2022/04/10 02:35:40;;;;;;;3.00;1.92;;;7.00;70.80;;;;;;5012698;28;20445;-73
2022/04/10 02:38:07;;;;;;;2.65;2.20;;;7.00;70.90;;;;;;5016662;28;20802;-73
2022/04/10 02:40:32;;;;;;;3.50;2.08;;;7.00;70.80;;;;;;5044424;28;20014;-73
2022/04/10 02:42:58;;;;;;;2.35;1.92;;;7.00;70.80;;;;;;5012406;28;20589;-72
2022/04/10 02:45:25;;;;;;;2.38;1.92;;;7.00;70.90;;;;;;5009803;28;20036;-72
2022/04/10 02:47:51;;;;;;;3.55;1.75;;;6.90;70.80;;;;;;5026844;28;20029;-73
2022/04/10 02:50:17;;;;;;;2.53;1.65;;;6.90;70.80;;;;;;5062186;28;20037;-73
2022/04/10 02:52:42;;;;;;;2.67;1.88;;;6.90;70.80;;;;;;5048169;28;20646;-73
2022/04/10 02:55:10;;;;;;;3.40;1.80;;;6.90;70.90;;;;;;5011809;28;20179;-73
2022/04/10 02:57:37;;;;;;;3.33;2.00;;;6.90;70.90;;;;;;5045635;28;20705;-72
2022/04/10 03:00:04;;;;;;;2.67;1.90;;;6.90;70.90;;;;;;5012344;28;20073;-72
2022/04/10 03:02:31;;;;;;;3.75;2.22;;;6.80;70.90;;;;;;5029325;28;20042;-72
2022/04/10 03:04:56;;;;;;;2.30;1.80;;;6.90;71.00;;;;;;5014032;28;20053;-72
2022/04/10 03:07:23;;;;;;;3.63;2.03;;;6.80;70.90;;;;;;5014860;28;20202;-72
2022/04/10 03:09:49;;;;;;;3.10;1.90;;;6.80;70.90;;;;;;5022360;28;20079;-72
2022/04/10 03:12:14;;;;;;;2.90;1.80;;;6.80;70.90;;;;;;5039328;28;20029;-73
2022/04/10 03:14:40;;;;;;;3.70;2.08;;;6.80;70.90;;;;;;5016560;28;20033;-72
2022/04/10 03:17:07;;;;;;;3.42;2.05;;;6.80;70.90;;;;;;5023135;28;20033;-74
2022/04/10 03:19:33;;;;;;;2.70;1.98;;;6.80;70.90;;;;;;4996719;28;20162;-72
2022/04/10 03:21:59;;;;;;;3.92;2.33;;;6.70;70.90;;;;;;5023993;28;20036;-72
2022/04/10 03:24:25;;;;;;;3.47;2.10;;;6.70;70.90;;;;;;4999203;28;20118;-74
2022/04/10 03:26:51;;;;;;;2.70;2.08;;;6.70;71.00;;;;;;5033102;28;20044;-73
2022/04/10 03:29:18;;;;;;;3.40;2.03;;;6.70;70.90;;;;;;5023025;28;20042;-73
2022/04/10 03:31:45;;;;;;;2.85;2.00;;;6.70;71.00;;;;;;5012431;28;20041;-72
2022/04/10 03:34:11;;;;;;;3.70;2.03;;;6.70;71.00;;;;;;5045386;28;20053;-73
2022/04/10 03:36:37;;;;;;;3.58;2.10;;;6.70;71.00;;;;;;5027139;28;20033;-72
2022/04/10 03:39:03;;;;;;;3.05;2.10;;;6.60;70.90;;;;;;5040530;28;20391;-72
2022/04/10 03:41:29;;;;;;;3.85;2.10;;;6.60;70.90;;;;;;5024259;28;20542;-72
2022/04/10 03:43:55;;;;;;;3.13;2.15;;;6.60;71.00;;;;;;5011532;28;20113;-72
2022/04/10 03:46:21;;;;;;;3.08;2.20;;;6.60;71.00;;;;;;5013649;28;20030;-72
2022/04/10 03:48:47;;;;;;;2.78;1.90;;;6.60;71.00;;;;;;5038706;28;20421;-73
2022/04/10 03:51:13;;;;;;;3.58;2.20;;;6.50;70.90;;;;;;5028367;28;20033;-72
2022/04/10 03:53:39;;;;;;;3.03;2.00;;;6.50;71.00;;;;;;5024937;28;20060;-72
2022/04/10 03:56:05;;;;;;;3.35;2.05;;;6.60;71.00;;;;;;5030710;28;20033;-74
2022/04/10 03:58:33;;;;;;;2.55;1.88;;;6.50;71.00;;;;;;5011820;28;20036;-73
2022/04/10 04:00:58;;;;;;;3.28;2.03;;;6.50;71.00;;;;;;5025726;28;20030;-72
2022/04/10 04:03:25;;;;;;;4.78;2.20;;;6.50;71.00;;;;;;5014620;28;20034;-72
2022/04/10 04:05:51;;;;;;;3.13;2.05;;;6.50;71.00;;;;;;5027603;28;20053;-75
2022/04/10 04:08:17;;;;;;;2.53;2.00;;;6.40;71.00;;;;;;5040933;28;20095;-72
2022/04/10 04:10:42;;;;;;;2.33;1.83;;;6.40;71.00;;;;;;4994999;28;20530;-73
2022/04/10 04:13:09;;;;;;;2.05;1.80;;;6.40;71.00;;;;;;5014246;28;20069;-73
2022/04/10 04:15:35;;;;;;;3.10;2.00;;;6.40;71.00;;;;;;5011649;28;20108;-73
2022/04/10 04:18:01;;;;;;;2.20;1.92;;;6.40;71.00;;;;;;5028841;28;20116;-74
2022/04/10 04:20:27;;;;;;;3.63;2.10;;;6.40;71.00;;;;;;5028806;28;20140;-73
2022/04/10 04:22:56;;;;;;;4.10;2.25;;;6.30;70.90;;;;;;5024028;28;20121;-72
2022/04/10 04:25:22;;;;;;;2.70;1.83;;;6.40;71.00;;;;;;5030343;28;20037;-73
2022/04/10 04:27:51;;;;;;;3.03;2.13;;;6.30;70.90;;;;;;5008030;28;20538;-73
2022/04/10 04:30:17;;;;;;;2.28;1.98;;;6.30;70.90;;;;;;5015904;28;20034;-72
2022/04/10 04:32:45;;;;;;;2.17;1.65;;;6.30;71.00;;;;;;5049835;28;20029;-72
2022/04/10 04:35:12;;;;;;;2.30;1.83;;;6.30;71.00;;;;;;5012483;28;20034;-73
2022/04/10 04:37:40;;;;;;;3.03;1.83;;;6.30;71.00;;;;;;5037466;28;20041;-73
2022/04/10 04:40:09;;;;;;;2.08;1.70;;;6.20;71.00;;;;;;5011075;28;20026;-73
2022/04/10 04:42:36;;;;;;;2.30;1.77;;;6.20;71.00;;;;;;5023032;28;20164;-72
2022/04/10 04:45:04;;;;;;;3.67;2.08;;;6.20;71.60;;;;;;5046336;28;20061;-75
2022/04/10 04:47:30;;;;;;;4.10;2.10;;;6.20;71.00;;;;;;5035432;28;20099;-73
2022/04/10 04:49:56;;;;;;;3.15;1.92;;;6.20;71.00;;;;;;5033786;28;20475;-73
2022/04/10 04:52:25;;;;;;;3.35;1.90;;;6.20;71.00;;;;;;5034229;28;20033;-72
2022/04/10 04:54:51;;;;;;;4.45;1.80;;;6.20;71.00;;;;;;5033723;28;20029;-73
2022/04/10 04:57:18;;;;;;;5.47;2.22;;;6.10;71.00;;;;;;5015784;28;20030;-73
2022/04/10 04:59:43;;;;;;;2.60;1.85;;;6.10;71.00;;;;;;5030497;28;20501;-73
2022/04/10 05:02:09;;;;;;;2.50;1.83;;;6.10;71.00;;;;;;5030827;28;20032;-73
2022/04/10 05:04:35;;;;;;;4.15;2.10;;;6.10;71.00;;;;;;5030592;28;20453;-74
2022/04/10 05:07:02;;;;;;;2.25;1.95;;;6.10;71.00;;;;;;5014257;28;20090;-75
2022/04/10 05:09:29;;;;;;;2.75;2.00;;;6.10;71.00;;;;;;5014086;28;20137;-73
2022/04/10 05:11:55;;;;;;;3.20;2.10;;;6.10;71.10;;;;;;5012806;28;20053;-73
2022/04/10 05:14:22;;;;;;;2.65;1.83;;;6.00;71.00;;;;;;5014821;28;20071;-73
2022/04/10 05:16:49;;;;;;;2.88;1.88;;;6.00;71.00;;;;;;5031197;28;20048;-73
2022/04/10 05:19:15;;;;;;;1.92;1.63;;;6.00;71.00;;;;;;5032456;28;20029;-74
2022/04/10 05:21:41;;;;;;;3.67;1.95;;;6.00;71.00;;;;;;5030772;28;20072;-73
2022/04/10 05:24:08;;;;;;;2.17;1.73;;;6.00;71.00;;;;;;5030013;28;20056;-73
2022/04/10 05:26:34;;;;;;;2.28;1.83;;;6.00;71.10;;;;;;5030192;28;20045;-73
2022/04/10 05:29:01;;;;;;;2.15;1.73;;;5.90;71.00;;;;;;5011545;28;20490;-75
2022/04/10 05:31:29;;;;;;;2.78;1.88;;;5.90;71.00;;;;;;5032427;28;20481;-74
2022/04/10 05:33:56;;;;;;;3.00;1.95;;;5.90;71.00;;;;;;5029737;28;20281;-73
2022/04/10 05:36:23;;;;;;;2.78;2.00;;;5.90;71.10;;;;;;5043151;28;20040;-74
2022/04/10 05:38:51;;;;;;;2.53;1.67;;;5.90;71.10;;;;;;5030197;28;20033;-75
2022/04/10 05:41:18;;;;;;;2.25;1.60;;;5.90;71.10;;;;;;5045946;28;20030;-74
2022/04/10 05:43:49;;;;;;;2.95;2.13;;;5.80;71.10;;;;;;5020304;28;20051;-73
2022/04/10 05:46:15;;;;;;;2.75;1.80;;;5.80;71.10;;;;;;5034121;28;20073;-73
2022/04/10 05:48:45;;;;;;;2.13;1.63;;;5.80;71.10;;;;;;5015896;28;20026;-73
2022/04/10 05:51:11;;;;;;;3.00;2.17;;;5.80;71.10;;;;;;5001446;28;20057;-74
2022/04/10 05:53:37;;;;;;;2.67;2.00;;;5.80;71.10;;;;;;5013656;28;20025;-73
2022/04/10 05:56:04;;;;;;;2.80;1.80;;;5.80;71.10;;;;;;5032125;28;20041;-72
2022/04/10 05:58:35;;;;;;;2.95;1.80;;;5.80;71.10;;;;;;5061344;28;20021;-73
2022/04/10 06:01:01;;;;;;;4.75;2.15;;;5.80;71.20;;;;;;5040612;28;20400;-73
2022/04/10 06:03:27;;;;;;;2.15;1.80;;;5.70;71.10;;;;;;5034932;28;20112;-74
2022/04/10 06:05:55;;;;;;;2.13;1.77;;;5.80;71.20;;;;;;5035663;28;20059;-72
2022/04/10 06:08:47;;;;;;;2.33;1.80;;;5.80;71.20;;;;;;5035458;28;20049;-74
2022/04/10 06:11:13;;;;;;;2.92;2.15;;;5.70;71.10;;;;;;5037955;28;20033;-73
2022/04/10 06:13:40;;;;;;;3.05;2.05;;;5.80;71.20;;;;;;5038187;28;20032;-75
2022/04/10 06:16:11;;;;;;;2.97;2.28;;;5.70;71.20;;;;;;5054906;28;20117;-73
2022/04/10 06:18:39;;;;;;;3.75;2.20;;;5.70;71.20;;;;;;5040569;28;20036;-74
2022/04/10 06:21:07;;;;;;;3.55;2.22;;;5.70;71.30;;;;;;5034563;28;20041;-73
2022/04/10 06:23:34;;;;;;;3.58;1.90;;;5.70;71.30;;;;;;5038227;28;20021;-73
2022/04/10 06:26:05;;;;;;;2.38;1.80;;;5.70;71.40;;;;;;5036828;28;20040;-72
2022/04/10 06:28:30;;;;;;;2.80;2.42;;;5.70;71.30;;;;;;5057657;28;20036;-72
2022/04/10 06:30:58;;;;;;;2.47;1.90;;;5.70;71.30;;;;;;5039880;28;20021;-74
2022/04/10 06:33:28;;;;;;;2.47;1.85;;;5.80;71.40;;;;;;5039998;28;20036;-73
2022/04/10 06:35:57;;;;;;;2.38;1.88;;;5.80;71.40;;;;;;5053378;28;20048;-73
2022/04/10 06:38:24;;;;;;;3.35;2.25;;;5.70;71.40;;;;;;5048160;28;20044;-74
2022/04/10 06:40:57;;;;;;;3.05;2.05;;;5.70;71.40;;;;;;5057783;28;20410;-73
2022/04/10 06:43:25;;;;;;;2.80;2.08;;;5.70;71.40;;;;;;5048823;28;20048;-73
2022/04/10 06:45:53;;;;;;;2.45;1.67;;;5.70;71.40;;;;;;5055770;28;20041;-74
2022/04/10 06:48:27;;;;;;;2.47;1.80;;;5.80;71.50;;;;;;5033104;28;20032;-75
2022/04/10 06:50:53;;;;;;;2.78;1.95;;;5.70;71.40;;;;;;5027470;28;20287;-74
2022/04/10 06:53:25;;;;;;;2.70;2.10;;;5.80;71.50;;;;;;5039771;28;20068;-74
2022/04/10 06:55:52;;;;;;;3.00;2.17;;;5.80;71.50;;;;;;5046375;28;20077;-74
2022/04/10 06:58:19;;;;;;;2.83;2.25;;;5.80;71.70;;;;;;5016762;28;20029;-73
2022/04/10 07:00:47;;;;;;;3.35;2.33;;;5.80;71.60;;;;;;5035989;28;20033;-73
2022/04/10 07:03:13;;;;;;;3.60;2.20;;;5.80;71.60;;;;;;5049617;28;20086;-74
2022/04/10 07:05:40;;;;;;;2.53;2.10;;;5.80;71.60;;;;;;5059137;28;20042;-73
2022/04/10 07:08:09;;;;;;;2.25;1.92;;;5.80;71.70;;;;;;5020996;28;20030;-73
2022/04/10 07:10:39;;;;;;;2.85;2.10;;;5.80;71.60;;;;;;5014497;28;20022;-74
2022/04/10 07:13:05;;;;;;;3.00;1.85;;;5.80;71.70;;;;;;4997184;28;20038;-74
2022/04/10 07:15:31;;;;;;;3.03;1.83;;;5.90;71.70;;;;;;5008997;28;20040;-74
2022/04/10 07:17:58;;;;;;;3.13;2.17;;;5.90;71.80;;;;;;5042168;28;20032;-74
2022/04/10 07:20:25;;;;;;;2.05;1.73;;;5.90;71.80;;;;;;5019178;28;20037;-74
2022/04/10 07:25:35;;;;;;;2.58;1.92;;;6.00;71.80;;;;;;5011248;28;20067;-73
2022/04/10 07:28:01;;;;;;;2.38;1.90;;;6.00;71.80;;;;;;5026481;28;20041;-73
2022/04/10 07:30:35;;;;;;;2.67;1.90;;;6.00;71.90;;;;;;5010205;28;20076;-74
2022/04/10 07:33:07;;;;;;;3.45;1.70;;;6.10;72.00;;;;;;5029485;28;20029;-73
2022/04/10 07:35:35;;;;;;;1.70;1.48;;;6.10;72.00;;;;;;5024801;28;20040;-73
2022/04/10 07:38:06;;;;;;;2.30;1.73;;;6.20;72.10;;;;;;5005317;28;20497;-74
2022/04/10 07:40:33;;;;;;;2.45;1.55;;;6.20;72.00;;;;;;5029699;28;20485;-74
2022/04/10 07:42:59;;;;;;;1.60;1.50;;;6.20;72.10;;;;;;5013021;28;20394;-72
2022/04/10 07:48:32;;;;;;;2.85;1.70;;;6.30;72.10;;;;;;5018104;28;20053;-75
2022/04/10 07:51:00;;;;;;;3.40;1.75;;;6.30;72.00;;;;;;5009564;28;20520;-77
2022/04/10 07:53:39;;;;;;;2.05;1.60;;;6.30;72.10;;;;;;5016279;28;20034;-73
2022/04/10 07:56:05;;;;;;;1.40;1.30;;;6.30;72.00;;;;;;5020277;28;20414;-72
2022/04/10 07:58:32;;;;;;;1.63;1.50;;;6.40;72.70;;;;;;5026996;28;20462;-72
2022/04/10 08:01:03;;;;;;;1.60;1.40;;;6.40;72.10;;;;;;5053887;28;20025;-73
2022/04/10 08:03:29;;;;;;;1.40;1.30;;;6.40;72.10;;;;;;5010120;28;20045;-74
2022/04/10 08:06:01;;;;;;;1.67;1.40;;;6.50;72.10;;;;;;5009027;28;20054;-73
2022/04/10 08:08:31;;;;;;;1.50;1.40;;;6.50;72.10;;;;;;5013312;28;20033;-73
2022/04/10 08:10:56;;;;;;;2.20;1.50;;;6.50;72.10;;;;;;5029136;28;20087;-73
2022/04/10 08:13:22;;;;;;;1.50;1.40;;;6.60;72.20;;;;;;5026931;28;20405;-73
2022/04/10 08:15:48;;;;;;;1.30;1.20;;;6.60;72.20;;;;;;5028900;28;20037;-73
2022/04/10 08:18:15;;;;;;;1.52;1.30;;;6.60;72.20;;;;;;4999159;28;20041;-73
2022/04/10 08:20:40;;;;;;;1.40;1.30;;;6.60;72.20;;;;;;5013494;28;20454;-73
2022/04/10 08:23:08;;;;;;;1.40;1.30;;;6.70;72.20;;;;;;5032852;28;20029;-74
2022/04/10 08:25:34;;;;;;;1.35;1.25;;;6.70;72.20;;;;;;5028391;28;20044;-74
2022/04/10 08:28:01;;;;;;;1.33;1.23;;;6.70;72.20;;;;;;5028474;28;20462;-73
2022/04/10 08:30:27;;;;;;;1.63;1.30;;;6.70;72.20;;;;;;5011186;28;20034;-73
2022/04/10 08:32:52;;;;;;;1.42;1.30;;;6.80;72.20;;;;;;5031212;28;20029;-74
2022/04/10 08:35:19;;;;;;;1.23;1.20;;;6.80;72.20;;;;;;5012296;28;20029;-76
2022/04/10 08:37:45;;;;;;;1.30;1.20;;;6.80;72.20;;;;;;5020583;28;20021;-73
2022/04/10 08:40:11;;;;;;;1.45;1.30;;;6.90;72.30;;;;;;5029196;28;20037;-73
2022/04/10 08:42:38;;;;;;;1.55;1.30;;;6.90;72.20;;;;;;5010775;28;20030;-73
2022/04/10 08:45:07;;;;;;;1.60;1.10;;;6.90;72.20;;;;;;5030407;28;20042;-73
2022/04/10 08:47:32;;;;;;;1.40;1.30;;;7.00;72.20;;;;;;5011302;28;20460;-73
2022/04/10 08:50:00;;;;;;;1.40;1.30;;;7.00;72.20;;;;;;5027785;28;20022;-75
2022/04/10 08:52:26;;;;;;;1.35;1.15;;;7.10;72.20;;;;;;5027570;28;20079;-73
2022/04/10 08:54:52;;;;;;;1.42;1.30;;;7.10;72.10;;;;;;5060157;28;20034;-73
2022/04/10 08:57:18;;;;;;;1.75;1.20;;;7.20;72.10;;;;;;5012530;28;20038;-74
2022/04/10 08:59:44;;;;;;;1.00;1.00;;;7.20;72.10;;;;;;5011695;28;20034;-74
2022/04/10 09:02:11;;;;;;;1.85;1.30;;;7.30;72.10;;;;;;5022257;28;20029;-74
2022/04/10 09:04:40;;;;;;;1.30;1.20;;;7.30;72.10;;;;;;5027905;28;20065;-73
2022/04/10 09:07:11;;;;;;;2.05;1.30;;;7.40;72.10;;;;;;4993924;28;20091;-73
2022/04/10 09:09:41;;;;;;;1.60;1.10;;;7.50;72.10;;;;;;5025487;28;20482;-72
2022/04/10 09:12:08;;;;;;;1.20;1.10;;;7.50;72.00;;;;;;5009925;28;20037;-72
2022/04/10 09:14:39;;;;;;;1.38;1.27;;;7.50;71.90;;;;;;5012555;28;20042;-73
2022/04/10 09:17:14;;;;;;;1.73;1.30;;;7.70;72.00;;;;;;5028176;28;20036;-73
2022/04/10 09:19:45;;;;;;;;;;;7.70;71.90;;;;;;5029252;28;20021;-72
2022/04/10 09:22:21;;;;;;;1.10;1.00;;;7.80;71.80;;;;;;5030867;28;19944;-72
2022/04/10 09:25:07;;;;;;;1.48;1.20;;;7.80;71.70;;;;;;5029348;28;20029;-74
2022/04/10 09:27:35;;;;;;;1.45;1.00;;;7.90;71.90;;;;;;5029350;28;20036;-73
2022/04/10 09:30:01;;;;;;;1.40;1.20;;;8.00;71.80;;;;;;5046355;28;20102;-73
2022/04/10 09:32:56;;;;;;;1.00;1.00;;;8.00;71.70;;;;;;5030439;28;20032;-74
2022/04/10 09:35:24;;;;;;;1.10;1.00;;;8.10;71.90;;;;;;4998198;28;20168;-74
2022/04/10 09:37:56;;;;;;;2.17;1.30;;;8.20;71.70;;;;;;5034497;28;20036;-73
2022/04/10 09:40:33;;;;;;;1.75;1.40;;;8.30;71.70;;;;;;5010525;28;20022;-72
2022/04/10 09:43:06;;;;;;;2.63;1.30;;;8.40;71.40;;;;;;5012581;28;20060;-73
2022/04/10 09:45:32;;;;;;;1.77;1.17;;;8.50;71.20;;;;;;5029223;28;20033;-74
2022/04/10 09:47:58;;;;;;;1.88;1.20;;;8.60;71.00;;;;;;5033776;28;20626;-74
2022/04/10 09:50:31;;;;;;;1.38;1.15;;;8.70;70.90;;;;;;5017832;28;20761;-73
2022/04/10 09:52:57;;;;;;;1.40;1.30;;;8.80;71.00;;;;;;5032096;28;20032;-75
2022/04/10 09:55:37;;;;;;;2.00;1.23;;;8.90;71.00;;;;;;5032678;28;20041;-73
2022/04/10 09:58:13;;;;;;;1.20;1.10;;;9.00;71.10;;;;;;5046718;28;20021;-74
2022/04/10 10:00:42;;;;;;;1.10;1.10;;;9.10;70.90;;;;;;5030827;28;20060;-72
2022/04/10 10:03:09;;;;;;;1.73;1.08;;;9.20;70.90;;;;;;5031423;28;20056;-71
2022/04/10 10:05:36;;;;;;;2.70;1.15;;;9.30;70.90;;;;;;5042706;28;20513;-73
2022/04/10 10:08:02;;;;;;;1.73;1.20;;;9.40;70.90;;;;;;5050928;28;20032;-72
2022/04/10 10:10:31;;;;;;;2.08;1.30;;;9.50;70.80;;;;;;5053153;28;20143;-71
2022/04/10 10:12:59;;;;;;;2.05;1.25;;;9.70;70.70;;;;;;5031719;28;20041;-73
2022/04/10 10:15:26;;;;;;;1.00;1.00;;;9.70;70.60;;;;;;5033167;28;20052;-71
2022/04/10 10:17:52;;;;;;;2.42;1.27;;;9.80;70.50;;;;;;5049897;28;20033;-72
2022/04/10 10:20:20;;;;;;;1.65;1.30;;;9.90;70.50;;;;;;5032750;28;20038;-72
2022/04/10 10:22:46;;;;;;;1.10;1.05;;;10.00;70.50;;;;;;5054365;28;20064;-73
2022/04/10 10:25:24;;;;;;;1.00;1.00;;;10.10;70.50;;;;;;5048346;28;20389;-72
2022/04/10 10:28:16;;;;;;;1.52;1.20;;;10.20;70.60;;;;;;5049453;28;20037;-72
2022/04/10 10:30:58;;;;;;;2.50;1.20;;;10.30;70.60;;;;;;5045071;28;20029;-73
2022/04/10 10:33:26;;;;;;;1.58;1.00;;;10.40;70.50;;;;;;5033542;28;20059;-72
2022/04/10 10:35:55;;;;;;;1.05;0.95;;;10.50;70.40;;;;;;5045243;28;20043;-74
2022/04/10 10:38:22;;;;;;;0.98;0.93;;;10.60;70.50;;;;;;5048913;28;20104;-72
2022/04/10 10:41:08;;;;;;;1.48;1.00;;;10.70;70.50;;;;;;5033092;28;20060;-73
2022/04/10 10:43:34;;;;;;;1.35;1.00;;;10.80;70.50;;;;;;5047237;28;20136;-73
2022/04/10 10:46:00;;;;;;;1.20;1.10;;;10.90;70.40;;;;;;5032779;28;20502;-73
2022/04/10 10:48:31;;;;;;;1.48;1.10;;;11.00;70.40;;;;;;5047274;28;20051;-72
2022/04/10 10:51:22;;;;;;;1.20;1.10;;;11.10;70.40;;;;;;5047169;28;20120;-72
2022/04/10 10:53:57;;;;;;;1.52;1.10;;;11.20;70.50;;;;;;5031962;28;20021;-72
2022/04/10 10:56:31;;;;;;;1.17;1.08;;;11.30;70.30;;;;;;5051810;28;20025;-73
2022/04/10 10:59:28;;;;;;;1.92;1.33;;;11.40;70.30;;;;;;5049459;28;20025;-72
2022/04/10 11:02:04;;;;;;;1.55;1.13;;;11.50;70.40;;;;;;5046205;28;20254;-73
2022/04/10 11:04:50;;;;;;;1.08;0.95;;;11.60;70.30;;;;;;5059275;28;20059;-74
2022/04/10 11:07:19;;;;;;;1.63;0.98;;;11.70;70.40;;;;;;5068496;28;20124;-72
2022/04/10 11:09:58;;;;;;;1.33;1.10;;;11.80;70.30;;;;;;5055929;28;20032;-72
2022/04/10 11:12:31;;;;;;;1.75;1.02;;;11.90;70.30;;;;;;5056794;28;20021;-73
2022/04/10 11:14:59;;;;;;;1.27;1.10;;;11.90;70.20;;;;;;5053345;28;20114;-71
2022/04/10 11:17:32;;;;;;;0.93;0.93;;;12.00;70.10;;;;;;5054802;28;20029;-73
2022/04/10 11:20:02;;;;;;;0.75;0.75;;;12.10;70.10;;;;;;5053968;28;20258;-74
2022/04/10 11:22:48;;;;;;;2.35;1.10;;;12.20;70.00;;;;;;5073083;28;20032;-73
2022/04/10 11:25:17;;;;;;;0.80;0.80;;;12.30;70.00;;;;;;5053315;28;20040;-71
2022/04/10 11:27:47;;;;;;;1.00;0.90;;;12.40;70.00;;;;;;5052646;28;20025;-72
2022/04/10 11:30:19;;;;;;;1.10;1.00;;;12.50;70.00;;;;;;5056712;28;20051;-72
2022/04/10 11:32:49;;;;;;;1.38;1.00;;;12.60;70.00;;;;;;5042876;28;20025;-73
2022/04/10 11:35:20;;;;;;;1.50;0.90;;;12.70;69.90;;;;;;5061574;28;20042;-75
2022/04/10 11:37:49;;;;;;;0.93;0.80;;;12.70;69.80;;;;;;5061783;28;20028;-75
2022/04/10 11:40:24;;;;;;;2.15;1.00;;;12.80;70.40;;;;;;5062971;28;20021;-73
2022/04/10 11:42:51;;;;;;;;;;;12.90;69.70;;;;;;5043854;28;20105;-73
2022/04/10 11:45:19;;;;;;;0.70;0.70;;;13.00;69.60;;;;;;5043015;28;19920;-73
2022/04/10 11:47:45;;;;;;;1.80;0.90;;;13.00;69.50;;;;;;5028758;28;20033;-72
2022/04/10 11:50:14;;;;;;;1.10;1.00;;;13.10;69.50;;;;;;5045926;28;20055;-73
2022/04/10 11:53:04;;;;;;;0.88;0.80;;;13.20;69.60;;;;;;5061955;28;20116;-73
2022/04/10 11:55:41;;;;;;;1.45;1.08;;;13.30;69.70;;;;;;5044606;28;20119;-72
2022/04/10 11:58:19;;;;;;;1.17;1.00;;;13.30;70.20;;;;;;5046062;28;20079;-73
2022/04/10 12:00:56;;;;;;;0.85;0.80;;;13.40;69.60;;;;;;5047209;28;20115;-72
2022/04/10 12:03:24;;;;;;;1.15;0.90;;;13.50;69.60;;;;;;5044648;28;20036;-73
2022/04/10 12:05:51;;;;;;;1.40;0.95;;;13.60;69.50;;;;;;5026793;28;20059;-73
2022/04/10 12:08:17;;;;;;;0.85;0.85;;;13.60;69.50;;;;;;5064492;28;20024;-73
2022/04/10 12:10:57;;;;;;;1.05;0.95;;;13.70;69.50;;;;;;5045305;28;20029;-73
2022/04/10 12:13:37;;;;;;;1.05;0.90;;;13.80;70.20;;;;;;5064239;28;20052;-72
2022/04/10 12:16:11;;;;;;;0.90;0.90;;;13.90;69.50;;;;;;5043575;28;20041;-72
2022/04/10 12:18:53;;;;;;;0.80;0.80;;;13.90;69.40;;;;;;5063274;28;20035;-76
2022/04/10 12:21:24;;;;;;;1.00;0.90;;;13.90;69.40;;;;;;5059471;28;20457;-77
2022/04/10 12:24:01;;;;;;;0.98;0.98;;;14.00;69.30;;;;;;5042889;28;20477;-73
2022/04/10 12:26:28;;;;;;;0.90;0.90;;;14.10;69.40;;;;;;5060717;28;20035;-73
2022/04/10 12:28:54;;;;;;;0.90;0.90;;;14.20;69.40;;;;;;5025792;28;20064;-73
2022/04/10 12:31:21;;;;;;;0.80;0.80;;;14.20;69.40;;;;;;5052549;28;20106;-72
2022/04/10 12:33:47;;;;;;;0.80;0.80;;;14.30;69.40;;;;;;5050842;28;20029;-73
2022/04/10 12:36:21;;;;;;;3.10;1.45;;;14.30;69.40;;;;;;5052266;28;20036;-72
2022/04/10 12:38:54;;;;;;;1.08;0.98;;;14.40;69.60;;;;;;5053578;28;20037;-72
2022/04/10 12:41:30;;;;;;;1.73;1.13;;;14.40;69.50;;;;;;5041302;28;20059;-73
2022/04/10 12:44:23;;;;;;;1.85;1.20;;;14.50;69.60;;;;;;5048731;28;20043;-72
2022/04/10 12:46:49;;;;;;;1.20;1.02;;;14.50;69.60;;;;;;5069470;28;20032;-73
2022/04/10 12:49:17;;;;;;;1.40;0.90;;;14.60;69.50;;;;;;5061878;28;20120;-74
2022/04/10 12:52:04;;;;;;;1.20;1.10;;;14.60;69.50;;;;;;5064584;28;20025;-73
2022/04/10 12:54:50;;;;;;;1.15;1.00;;;14.70;69.50;;;;;;5065127;28;20129;-73
2022/04/10 12:57:26;;;;;;;1.27;1.08;;;14.80;69.40;;;;;;5020819;28;20039;-74
2022/04/10 12:59:53;;;;;;;1.00;0.90;;;14.90;69.40;;;;;;5054397;28;20118;-73
2022/04/10 13:02:26;;;;;;;0.95;0.90;;;14.90;69.40;;;;;;5040731;28;20516;-73
2022/04/10 13:05:01;;;;;;;0.88;0.88;;;14.90;69.40;;;;;;5055894;28;20055;-73
2022/04/10 13:07:29;;;;;;;1.23;0.95;;;15.00;69.30;;;;;;5052908;28;20127;-71
2022/04/10 13:10:01;;;;;;;2.53;1.20;;;15.00;69.20;;;;;;5042270;28;20043;-74